Front Circassia — V7JX6 — position and weather

sailwx.info

Track history (hours):
 
Tides and Currents Weather Stations Pressure Air Temp Water Temp Dewpoint Dewpoint Depression Visibility Wind Speed Wind Dir Waves Ship Positions

Front Circassia

Last reported at 2017-Nov-02 09:03 UTC. Time now 2017-Nov-22 22:06 UTC.
Position S 33°07' E 030°27'.
Warning: this ship's position is 20 days out of date.

Length 333 m; draft 11.4 m.

Type: Tanker. MMSI: 538002584.

Date/timePositionNaut miles runAvg speedWind from/ knotsBaromVisibWave heightAir tempDewpointWater temp
2017-Nov-02 09:03S 33°07' E 030°27'2613.4
2017-Nov-02 07:06S 32°56' E 030°56'313.3
2017-Nov-02 06:54S 32°55' E 030°59'4712.5
2017-Nov-02 03:10S 32°37' E 031°50'212.9
2017-Nov-02 03:00S 32°37' E 031°52'1912.6
2017-Nov-02 01:28S 32°29' E 032°14'512.0
2017-Nov-02 01:00S 32°27' E 032°20'611.9
2017-Nov-02 00:30S 32°25' E 032°26'2012.3
2017-Nov-01 22:55S 32°17' E 032°47'912.6
2017-Nov-01 22:10S 32°14' E 032°58'613.0
2017-Nov-01 21:41S 32°11' E 033°04'313.0
2017-Nov-01 21:26S 32°10' E 033°08'  
Track history (hours):
 
Tides and Currents Weather Stations Pressure Air Temp Water Temp Dewpoint Dewpoint Depression Visibility Wind Speed Wind Dir Waves Ship Positions

Front Circassia

Last reported at 2017-Nov-02 09:03 UTC. Time now 2017-Nov-22 22:06 UTC.
Position S 33°07' E 030°27'.
Warning: this ship's position is 20 days out of date.

Length 333 m; draft 11.4 m.

Type: Tanker. MMSI: 538002584.

Date/timePositionNaut miles runAvg speedWind from/ knotsBaromVisibWave heightAir tempDewpointWater temp
2017-Nov-02 09:03S 33°07' E 030°27'2613.4
2017-Nov-02 07:06S 32°56' E 030°56'313.3
2017-Nov-02 06:54S 32°55' E 030°59'4712.5
2017-Nov-02 03:10S 32°37' E 031°50'212.9
2017-Nov-02 03:00S 32°37' E 031°52'1912.6
2017-Nov-02 01:28S 32°29' E 032°14'512.0
2017-Nov-02 01:00S 32°27' E 032°20'611.9
2017-Nov-02 00:30S 32°25' E 032°26'2012.3
2017-Nov-01 22:55S 32°17' E 032°47'912.6
2017-Nov-01 22:10S 32°14' E 032°58'613.0
2017-Nov-01 21:41S 32°11' E 033°04'313.0
2017-Nov-01 21:26S 32°10' E 033°08'  

Dump ship's entire track history